Time;durP1;ratioP1;P1;durP2;ratioP2;P2;SDS_P1;SDS_P2;PMS_P1;PMS_P2;Temp;Humidity;BMP_temperature;BMP_pressure;BME280_temperature;BME280_humidity;BME280_pressure;Samples;Min_cycle;Max_cycle;Signal;HPM_P1;HPM_P2
2023/05/03 00:01:00;;;;;;;5.77;2.57;;;6.30;99.90;;;;;;4978494;28;20491;-75
2023/05/03 00:03:31;;;;;;;8.90;3.57;;;6.20;99.90;;;;;;4974677;28;20509;-76
2023/05/03 00:06:21;;;;;;;3.87;2.70;;;6.20;99.90;;;;;;4964752;28;20454;-76
2023/05/03 00:08:48;;;;;;;2.80;2.10;;;6.20;99.90;;;;;;5051036;28;20504;-75
2023/05/03 00:11:23;;;;;;;5.10;2.40;;;6.30;99.90;;;;;;5063316;28;20922;-75
2023/05/03 00:13:50;;;;;;;3.97;2.77;;;6.30;99.90;;;;;;5062604;28;20496;-76
2023/05/03 00:16:23;;;;;;;7.23;2.87;;;6.20;99.90;;;;;;5064383;28;20543;-77
2023/05/03 00:19:28;;;;;;;4.73;2.27;;;6.10;99.90;;;;;;5061274;28;20434;-75
2023/05/03 00:21:55;;;;;;;3.03;2.70;;;6.10;99.90;;;;;;5015811;28;20432;-74
2023/05/03 00:24:22;;;;;;;2.77;2.57;;;6.00;99.90;;;;;;5074997;28;20486;-75
2023/05/03 00:27:31;;;;;;;5.23;2.17;;;6.00;99.90;;;;;;5065078;28;20499;-76
2023/05/03 00:30:09;;;;;;;4.00;2.60;;;6.00;99.90;;;;;;5065026;28;20425;-76
2023/05/03 00:32:45;;;;;;;3.37;3.07;;;5.90;99.90;;;;;;5079357;28;20464;-77
2023/05/03 00:35:14;;;;;;;4.33;3.50;;;5.90;99.90;;;;;;5077831;28;20458;-77
2023/05/03 00:37:50;;;;;;;4.63;3.40;;;5.70;99.90;;;;;;5063400;28;20514;-75
2023/05/03 00:40:25;;;;;;;7.07;3.20;;;5.60;99.90;;;;;;5059250;28;20989;-75
2023/05/03 00:42:54;;;;;;;5.03;2.40;;;5.80;99.90;;;;;;5060480;28;20561;-76
2023/05/03 00:45:44;;;;;;;4.10;2.90;;;5.90;99.90;;;;;;5065173;28;20516;-76
2023/05/03 00:48:12;;;;;;;3.77;2.23;;;5.90;99.90;;;;;;5072512;28;20456;-76
2023/05/03 00:58:08;;;;;;;5.33;2.50;;;5.80;99.90;;;;;;4961931;28;20493;-74
2023/05/03 01:08:11;;;;;;;3.20;2.20;;;5.50;99.90;;;;;;4872166;29;20445;-75
2023/05/03 01:14:26;;;;;;;4.17;2.83;;;5.50;99.90;;;;;;4956417;28;20536;-75
2023/05/03 01:44:56;;;;;;;3.50;1.80;;;5.20;99.90;;;;;;4884822;29;20483;-76
2023/05/03 01:47:28;;;;;;;8.20;3.20;;;5.10;99.90;;;;;;4858288;29;20517;-76
2023/05/03 01:53:21;;;;;;;3.43;2.33;;;5.20;99.90;;;;;;4970063;28;20484;-75
2023/05/03 01:55:52;;;;;;;4.23;2.83;;;5.10;99.90;;;;;;4964217;28;20429;-75
2023/05/03 02:01:57;;;;;;;3.27;2.80;;;5.10;99.90;;;;;;4956622;28;20470;-75
2023/05/03 02:04:26;;;;;;;4.60;3.03;;;5.10;99.90;;;;;;4975628;28;21110;-75
2023/05/03 02:06:57;;;;;;;3.60;3.10;;;4.90;99.90;;;;;;5063275;28;20519;-75
2023/05/03 02:09:31;;;;;;;7.40;2.60;;;4.90;99.90;;;;;;5061623;28;20509;-76
2023/05/03 02:11:58;;;;;;;3.13;2.80;;;4.90;99.90;;;;;;5065886;28;20457;-76
2023/05/03 02:14:32;;;;;;;4.77;2.90;;;4.90;99.90;;;;;;5067950;28;20904;-75
2023/05/03 02:17:25;;;;;;;3.77;2.83;;;4.90;99.90;;;;;;5071281;28;20442;-75
2023/05/03 02:23:10;;;;;;;4.63;2.03;;;4.90;99.90;;;;;;5056688;28;20479;-76
2023/05/03 02:25:37;;;;;;;3.10;2.80;;;4.90;99.90;;;;;;5065047;28;20491;-75
2023/05/03 02:28:05;;;;;;;3.47;3.17;;;4.80;99.90;;;;;;5061020;28;20875;-75
2023/05/03 02:30:53;;;;;;;5.40;3.80;;;4.80;99.90;;;;;;5047727;28;20940;-75
2023/05/03 02:33:49;;;;;;;6.23;3.60;;;4.80;99.90;;;;;;5059787;28;20626;-75
2023/05/03 02:36:16;;;;;;;2.60;2.17;;;4.80;99.90;;;;;;5058913;28;20852;-74
2023/05/03 02:38:43;;;;;;;6.63;2.87;;;4.80;99.90;;;;;;5063381;28;20860;-75
2023/05/03 02:41:28;;;;;;;4.60;3.00;;;4.70;99.90;;;;;;5062804;28;20492;-74
2023/05/03 02:43:58;;;;;;;10.63;4.63;;;4.70;99.90;;;;;;5063280;28;20461;-75
2023/05/03 02:46:25;;;;;;;3.80;2.57;;;4.60;99.90;;;;;;5030745;28;20426;-76
2023/05/03 02:48:59;;;;;;;5.30;3.20;;;4.40;99.90;;;;;;5059642;28;20458;-75
2023/05/03 02:51:40;;;;;;;5.40;2.80;;;4.40;99.90;;;;;;5065371;28;20808;-75
2023/05/03 02:54:09;;;;;;;8.23;3.80;;;4.50;99.90;;;;;;5065598;28;20450;-76
2023/05/03 02:56:37;;;;;;;2.20;1.83;;;4.60;99.90;;;;;;5062813;28;20434;-75
2023/05/03 02:59:31;;;;;;;2.63;2.10;;;4.60;99.90;;;;;;5078526;28;20458;-75
2023/05/03 03:02:10;;;;;;;5.90;2.60;;;4.60;99.90;;;;;;5067207;28;20462;-76
2023/05/03 03:04:42;;;;;;;6.07;3.33;;;4.60;99.90;;;;;;5062238;28;20550;-75
2023/05/03 03:07:21;;;;;;;7.13;4.20;;;4.60;99.90;;;;;;5061563;28;21025;-74
2023/05/03 03:10:00;;;;;;;9.57;4.87;;;4.50;99.90;;;;;;5068398;28;20473;-75
2023/05/03 03:12:49;;;;;;;3.60;2.73;;;4.50;99.90;;;;;;5062160;28;20462;-74
2023/05/03 03:15:43;;;;;;;3.40;2.47;;;4.50;99.90;;;;;;5069375;28;20458;-76
2023/05/03 03:18:33;;;;;;;3.63;3.33;;;4.50;99.90;;;;;;5075202;28;20465;-75
2023/05/03 03:21:31;;;;;;;4.53;3.20;;;4.40;99.90;;;;;;5068018;28;20909;-75
2023/05/03 03:27:34;;;;;;;3.63;2.73;;;4.40;99.90;;;;;;5017220;28;20839;-74
2023/05/03 03:30:10;;;;;;;8.27;3.90;;;4.40;99.90;;;;;;5065529;28;20515;-75
2023/05/03 03:32:39;;;;;;;3.73;2.77;;;4.40;99.90;;;;;;5152963;22;20511;-75
2023/05/03 03:35:08;;;;;;;5.00;4.13;;;4.30;99.90;;;;;;5025602;28;20435;-76
2023/05/03 03:37:48;;;;;;;4.53;2.87;;;4.20;99.90;;;;;;5024840;28;20477;-76
2023/05/03 03:40:30;;;;;;;4.23;2.80;;;4.20;99.90;;;;;;5033925;28;20447;-75
2023/05/03 03:43:10;;;;;;;4.10;2.87;;;4.30;99.90;;;;;;5030243;28;20455;-76
2023/05/03 03:45:47;;;;;;;2.90;2.60;;;4.20;99.90;;;;;;5009170;28;20459;-76
2023/05/03 03:48:42;;;;;;;2.30;2.10;;;4.30;99.90;;;;;;5027325;28;20480;-77
2023/05/03 03:51:13;;;;;;;4.43;3.23;;;4.20;99.90;;;;;;5007044;28;20423;-75
2023/05/03 03:54:28;;;;;;;8.60;3.53;;;4.20;99.90;;;;;;5035938;28;21015;-76
2023/05/03 03:59:50;;;;;;;10.60;4.50;;;4.20;99.90;;;;;;5014675;28;20458;-76
2023/05/03 04:02:20;;;;;;;5.00;3.37;;;4.20;99.90;;;;;;5024494;28;20447;-76
2023/05/03 04:05:06;;;;;;;4.20;3.77;;;4.20;99.90;;;;;;5032910;28;20454;-76
2023/05/03 04:07:48;;;;;;;5.00;2.53;;;4.20;99.90;;;;;;5019827;28;21017;-76
2023/05/03 04:11:23;;;;;;;7.40;4.30;;;4.20;99.90;;;;;;5023050;28;20725;-76
2023/05/03 04:14:11;;;;;;;3.60;3.20;;;4.20;99.90;;;;;;4974065;28;20506;-77
2023/05/03 04:17:03;;;;;;;4.40;3.60;;;4.30;99.90;;;;;;4992679;28;20433;-75
2023/05/03 04:19:57;;;;;;;3.83;2.80;;;4.40;99.90;;;;;;4891440;29;20493;-75
2023/05/03 04:22:56;;;;;;;6.93;3.13;;;4.30;99.90;;;;;;4947313;29;20502;-75
2023/05/03 04:29:37;;;;;;;3.70;3.00;;;4.20;99.90;;;;;;4926548;28;20513;-76
2023/05/03 04:33:03;;;;;;;4.07;3.30;;;4.10;99.90;;;;;;4951542;28;20426;-75
2023/05/03 05:21:58;;;;;;;8.83;3.40;;;8.00;99.90;;;;;;5138137;22;20545;-75
2023/05/03 05:41:34;;;;;;;4.33;3.50;;;9.90;99.90;;;;;;4940864;28;20462;-75
2023/05/03 05:55:12;;;;;;;5.40;2.83;;;11.10;99.90;;;;;;4787803;29;20505;-76
2023/05/03 06:28:34;;;;;;;6.27;3.23;;;11.90;99.90;;;;;;5773760;22;10801317;-76
2023/05/03 06:35:31;;;;;;;5.10;2.80;;;12.20;99.90;;;;;;6040424;23;20401;-76
2023/05/03 06:38:04;;;;;;;4.50;3.43;;;12.90;99.90;;;;;;6113499;23;20446;-75
2023/05/03 06:41:03;;;;;;;3.70;2.67;;;13.40;99.90;;;;;;6219628;23;20384;-76
2023/05/03 06:47:26;;;;;;;2.80;2.47;;;13.20;99.90;;;;;;6126248;23;20737;-75
2023/05/03 06:49:53;;;;;;;5.80;2.80;;;13.20;99.90;;;;;;6142105;23;20485;-75
2023/05/03 06:53:00;;;;;;;5.33;2.40;;;12.90;99.90;;;;;;6222539;23;20391;-76
2023/05/03 06:55:36;;;;;;;4.50;1.90;;;13.10;99.90;;;;;;6222486;23;20403;-76
2023/05/03 07:01:02;;;;;;;9.23;2.20;;;12.60;99.90;;;;;;6127940;23;20425;-76
2023/05/03 07:03:29;;;;;;;5.67;2.57;;;12.80;99.90;;;;;;6128308;23;20424;-76
2023/05/03 07:06:21;;;;;;;5.00;2.10;;;13.30;99.90;;;;;;6217535;23;20404;-76
2023/05/03 07:08:59;;;;;;;2.33;2.13;;;13.60;99.90;;;;;;6221500;23;20474;-76
2023/05/03 07:11:39;;;;;;;12.50;2.67;;;13.90;99.90;;;;;;6221018;23;20529;-76
2023/05/03 07:14:16;;;;;;;2.93;1.87;;;13.60;99.90;;;;;;6145507;23;20482;-76
2023/05/03 07:17:08;;;;;;;2.87;2.53;;;13.90;99.90;;;;;;6226595;23;20430;-77
2023/05/03 07:19:48;;;;;;;2.30;2.07;;;14.40;99.90;;;;;;6232027;23;20499;-76
2023/05/03 07:23:08;;;;;;;;;;;;;;;;;;;;;
2023/05/03 07:29:00;;;;;;;4.33;1.97;;;14.40;99.90;;;;;;6147996;23;20752;-77
2023/05/03 07:34:43;;;;;;;1.77;1.50;;;14.40;99.90;;;;;;6217964;22;20465;-76
2023/05/03 07:37:16;;;;;;;3.07;2.23;;;14.80;99.90;;;;;;6135978;23;20505;-77
2023/05/03 07:39:58;;;;;;;2.10;1.73;;;14.80;99.90;;;;;;6213185;23;20488;-77
2023/05/03 07:42:25;;;;;;;5.67;3.40;;;15.00;99.90;;;;;;6218208;23;20431;-77
2023/05/03 07:51:35;;;;;;;;;;;;;;;;;;;;;
2023/05/03 07:54:26;;;;;;;2.50;2.30;;;15.80;99.90;;;;;;6176612;23;21025;-77
2023/05/03 08:04:23;;;;;;;2.83;1.40;;;15.50;99.10;;;;;;6211619;23;20456;-76
2023/05/03 08:07:34;;;;;;;4.40;2.00;;;15.70;98.60;;;;;;6230313;23;20385;-77
2023/05/03 08:10:13;;;;;;;3.70;1.73;;;15.90;99.90;;;;;;6192449;23;20762;-76
2023/05/03 08:12:54;;;;;;;8.03;1.60;;;16.60;99.50;;;;;;6212487;23;20419;-76
2023/05/03 08:15:24;;;;;;;5.47;1.47;;;16.10;98.70;;;;;;6212318;23;20404;-76
2023/05/03 08:18:13;;;;;;;2.17;1.97;;;16.20;98.10;;;;;;6211125;23;20446;-76
2023/05/03 08:20:48;;;;;;;4.07;1.70;;;16.10;99.00;;;;;;6210214;23;20408;-75
2023/05/03 08:26:47;;;;;;;3.90;2.27;;;16.20;97.90;;;;;;6116427;23;20399;-77
2023/05/03 08:29:26;;;;;;;4.30;2.50;;;17.10;97.50;;;;;;6139745;23;20404;-77
2023/05/03 08:32:04;;;;;;;3.47;2.43;;;16.00;96.50;;;;;;6211115;23;20396;-76
2023/05/03 08:34:40;;;;;;;4.87;1.57;;;15.30;97.00;;;;;;6212888;23;20435;-76
2023/05/03 08:44:35;;;;;;;2.10;1.70;;;17.70;96.80;;;;;;6029881;23;20543;-77
2023/05/03 08:47:40;;;;;;;4.70;2.47;;;19.00;94.60;;;;;;6114966;23;20416;-77
2023/05/03 08:50:10;;;;;;;5.00;2.53;;;18.40;93.50;;;;;;6209410;23;20491;-77
2023/05/03 08:52:39;;;;;;;2.20;1.67;;;17.10;93.80;;;;;;6214946;23;20585;-77
2023/05/03 08:55:25;;;;;;;2.40;1.90;;;16.80;93.80;;;;;;6215208;23;20499;-77
2023/05/03 08:58:26;;;;;;;;;;;;;;;;;;;;;
2023/05/03 09:01:22;;;;;;;3.97;2.97;;;19.00;92.30;;;;;;6202681;23;20475;-75
2023/05/03 09:03:51;;;;;;;3.63;2.10;;;19.70;90.90;;;;;;6220934;23;20563;-75
2023/05/03 09:06:21;;;;;;;3.77;2.17;;;19.30;90.50;;;;;;6211864;23;20435;-76
2023/05/03 09:24:20;;;;;;;1.50;1.13;;;20.20;86.20;;;;;;6216770;23;20866;-72
2023/05/03 09:29:30;;;;;;;5.97;2.03;;;18.60;84.00;;;;;;6226010;22;21151;-73
2023/05/03 09:47:34;;;;;;;9.70;3.77;;;19.60;82.70;;;;;;6207412;22;20451;-72
